createdAt,value
2018-08-09T00:00:32.792Z,22.50
2018-08-09T00:03:01.341Z,22.40
2018-08-09T00:05:29.956Z,22.20
2018-08-09T00:07:58.462Z,21.90
2018-08-09T00:10:27.073Z,22.00
2018-08-09T00:12:55.625Z,22.20
2018-08-09T00:15:24.214Z,22.10
2018-08-09T00:17:53.258Z,22.10
2018-08-09T00:20:21.806Z,22.20
2018-08-09T00:22:50.665Z,22.10
2018-08-09T00:25:19.381Z,22.10
2018-08-09T00:27:48.030Z,22.00
2018-08-09T00:30:16.649Z,22.00
2018-08-09T00:32:45.165Z,22.00
2018-08-09T00:35:13.725Z,22.00
2018-08-09T00:37:42.776Z,21.90
2018-08-09T00:40:11.304Z,21.90
2018-08-09T00:42:39.874Z,21.80
2018-08-09T00:45:08.425Z,21.80
2018-08-09T00:47:36.947Z,21.80
2018-08-09T00:50:05.584Z,21.90
2018-08-09T00:52:34.108Z,21.90
2018-08-09T00:55:02.687Z,21.90
2018-08-09T00:57:31.221Z,21.80
2018-08-09T00:59:59.994Z,21.70
2018-08-09T01:02:28.559Z,21.80
2018-08-09T01:04:57.091Z,21.70
2018-08-09T01:07:25.604Z,21.60
2018-08-09T01:09:54.177Z,21.60
2018-08-09T01:12:22.732Z,21.60
2018-08-09T01:14:51.277Z,21.60
2018-08-09T01:17:19.784Z,21.60
2018-08-09T01:19:48.334Z,21.60
2018-08-09T01:22:16.844Z,21.50
2018-08-09T01:24:45.480Z,21.50
2018-08-09T01:27:14.013Z,21.40
2018-08-09T01:29:42.576Z,21.20
2018-08-09T01:32:11.145Z,21.00
2018-08-09T01:34:39.702Z,21.00
2018-08-09T01:37:08.232Z,21.10
2018-08-09T01:39:36.786Z,21.20
2018-08-09T01:42:16.606Z,21.30
2018-08-09T01:44:45.146Z,21.40
2018-08-09T01:47:13.652Z,21.40
2018-08-09T01:49:42.195Z,21.20
2018-08-09T01:52:10.731Z,21.10
2018-08-09T01:54:39.277Z,21.20
2018-08-09T01:57:07.817Z,21.20
2018-08-09T01:59:36.375Z,21.20
2018-08-09T02:02:04.937Z,21.10
2018-08-09T02:04:33.494Z,21.10
2018-08-09T02:07:02.064Z,21.10
2018-08-09T02:09:34.556Z,21.10
2018-08-09T02:12:04.285Z,21.10
2018-08-09T02:14:33.041Z,21.00
2018-08-09T02:17:01.963Z,21.00
2018-08-09T02:19:30.822Z,21.10
2018-08-09T02:21:59.372Z,21.00
2018-08-09T02:24:27.898Z,20.70
2018-08-09T02:26:56.447Z,20.60
2018-08-09T02:29:24.961Z,20.70
2018-08-09T02:31:53.509Z,20.80
2018-08-09T02:34:22.031Z,20.80
2018-08-09T02:36:50.585Z,20.80
2018-08-09T02:39:19.180Z,20.80
2018-08-09T02:41:47.746Z,20.80
2018-08-09T02:44:16.269Z,20.60
2018-08-09T02:46:44.923Z,20.50
2018-08-09T02:49:13.413Z,20.60
2018-08-09T02:51:41.960Z,20.50
2018-08-09T02:54:10.476Z,20.50
2018-08-09T02:56:39.046Z,20.50
2018-08-09T02:59:07.565Z,20.50
2018-08-09T03:01:36.185Z,20.50
2018-08-09T03:04:04.720Z,20.30
2018-08-09T03:06:34.331Z,20.30
2018-08-09T03:09:02.990Z,20.30
2018-08-09T03:11:31.550Z,20.30
2018-08-09T03:14:00.081Z,20.40
2018-08-09T03:16:28.633Z,20.30
2018-08-09T03:18:58.648Z,20.20
2018-08-09T03:21:27.241Z,20.20
2018-08-09T03:23:55.784Z,20.30
2018-08-09T03:26:24.315Z,20.20
2018-08-09T03:28:52.842Z,20.30
2018-08-09T03:31:21.397Z,20.30
2018-08-09T03:33:49.920Z,20.20
2018-08-09T03:36:19.014Z,20.20
2018-08-09T03:38:49.889Z,20.20
2018-08-09T03:41:18.442Z,20.10
2018-08-09T03:43:47.399Z,20.10
2018-08-09T03:46:15.954Z,20.10
2018-08-09T03:48:44.491Z,20.10
2018-08-09T03:51:13.031Z,20.10
2018-08-09T03:53:41.552Z,20.20
2018-08-09T03:56:10.100Z,20.20
2018-08-09T03:58:38.629Z,20.10
2018-08-09T04:01:07.268Z,20.10
2018-08-09T04:03:35.784Z,20.10
2018-08-09T04:06:04.356Z,20.10
2018-08-09T04:08:33.369Z,19.80
2018-08-09T04:11:01.876Z,19.80
2018-08-09T04:13:30.421Z,19.90
2018-08-09T04:15:58.945Z,19.90
2018-08-09T04:18:27.479Z,19.90
2018-08-09T04:20:56.015Z,20.00
2018-08-09T04:23:24.572Z,20.00
2018-08-09T04:25:53.208Z,20.00
2018-08-09T04:28:23.988Z,20.10
2018-08-09T04:30:53.407Z,20.20
2018-08-09T04:33:22.445Z,20.20
2018-08-09T04:35:58.577Z,20.20
2018-08-09T04:38:27.688Z,20.10
2018-08-09T04:40:56.895Z,20.10
2018-08-09T04:43:25.451Z,20.00
2018-08-09T04:45:54.005Z,20.10
2018-08-09T04:48:22.546Z,20.20
2018-08-09T04:50:51.086Z,20.30
2018-08-09T04:53:19.620Z,20.30
2018-08-09T04:55:48.168Z,20.40
2018-08-09T04:58:16.731Z,20.30
2018-08-09T05:00:45.303Z,20.40
2018-08-09T05:03:13.849Z,20.50
2018-08-09T05:05:42.634Z,20.60
2018-08-09T05:08:11.174Z,20.70
2018-08-09T05:10:39.717Z,20.90
2018-08-09T05:13:08.273Z,21.00
2018-08-09T05:15:36.792Z,21.00
2018-08-09T05:18:05.367Z,21.10
2018-08-09T05:20:33.872Z,21.20
2018-08-09T05:23:02.476Z,21.30
2018-08-09T05:25:30.996Z,21.40
2018-08-09T05:27:59.584Z,21.40
2018-08-09T05:30:28.112Z,21.50
2018-08-09T05:32:56.678Z,21.60
2018-08-09T05:35:27.797Z,21.90
2018-08-09T05:37:56.374Z,22.00
2018-08-09T05:40:24.876Z,22.00
2018-08-09T05:42:53.468Z,22.20
2018-08-09T05:45:24.364Z,22.50
2018-08-09T05:47:52.914Z,22.50
2018-08-09T05:50:21.441Z,22.70
2018-08-09T05:52:50.047Z,22.90
2018-08-09T05:55:18.533Z,23.00
2018-08-09T05:57:47.069Z,23.20
2018-08-09T06:05:14.971Z,23.70
2018-08-09T06:07:43.505Z,23.90
2018-08-09T06:10:12.035Z,24.20
2018-08-09T06:12:40.568Z,24.60
2018-08-09T06:15:09.996Z,25.00
2018-08-09T06:17:38.543Z,25.50
2018-08-09T06:20:07.872Z,25.70
2018-08-09T06:22:37.306Z,25.90
2018-08-09T06:25:08.202Z,26.10
2018-08-09T06:27:38.362Z,26.20
2018-08-09T06:30:09.716Z,26.20
2018-08-09T06:32:39.224Z,26.20
2018-08-09T06:35:10.334Z,26.30
2018-08-09T06:37:38.981Z,26.30
2018-08-09T06:40:10.831Z,26.40
2018-08-09T06:42:39.428Z,26.50
2018-08-09T06:45:07.990Z,26.40
2018-08-09T06:47:36.919Z,26.30
2018-08-09T06:50:06.362Z,26.00
2018-08-09T06:52:34.871Z,25.90
2018-08-09T06:55:03.796Z,25.80
2018-08-09T06:57:32.403Z,25.70
2018-08-09T07:00:01.173Z,25.70
2018-08-09T07:02:29.752Z,25.90
2018-08-09T07:04:58.338Z,26.10
2018-08-09T07:07:26.979Z,26.30
2018-08-09T07:09:55.720Z,26.40
2018-08-09T07:12:24.282Z,26.50
2018-08-09T07:14:52.895Z,23.80
2018-08-09T07:17:21.542Z,26.70
2018-08-09T07:19:50.139Z,26.90
2018-08-09T07:22:18.894Z,27.10
2018-08-09T07:24:47.523Z,27.30
2018-08-09T07:27:17.491Z,27.50
2018-08-09T07:29:46.050Z,27.60
2018-08-09T07:32:14.696Z,27.80
2018-08-09T07:34:43.224Z,28.00
2018-08-09T07:37:11.740Z,28.00
2018-08-09T07:39:40.358Z,28.10
2018-08-09T07:42:08.907Z,28.40
2018-08-09T07:44:37.444Z,28.60
2018-08-09T07:49:34.296Z,29.00
2018-08-09T07:52:02.825Z,29.20
2018-08-09T07:54:31.357Z,29.50
2018-08-09T07:56:59.940Z,29.50
2018-08-09T07:59:28.477Z,29.60
2018-08-09T08:01:58.999Z,29.90
2018-08-09T08:04:27.609Z,30.70
2018-08-09T08:06:56.125Z,31.50
2018-08-09T08:11:52.903Z,32.40
2018-08-09T08:16:50.243Z,32.10
2018-08-09T08:19:18.794Z,31.90
2018-08-09T08:21:47.312Z,31.90
2018-08-09T08:24:15.843Z,31.70
2018-08-09T08:26:44.416Z,31.50
2018-08-09T08:29:13.103Z,31.40
2018-08-09T08:31:41.636Z,31.10
2018-08-09T08:34:10.206Z,31.00
2018-08-09T08:36:38.807Z,30.80
2018-08-09T08:39:09.275Z,30.60
2018-08-09T08:41:38.140Z,30.50
2018-08-09T08:44:06.874Z,30.50
2018-08-09T08:46:35.443Z,30.80
2018-08-09T08:49:04.165Z,30.80
2018-08-09T08:51:32.696Z,30.70
2018-08-09T08:54:01.284Z,30.50
2018-08-09T08:56:29.826Z,30.50
2018-08-09T08:58:58.365Z,30.60
2018-08-09T09:01:27.903Z,30.70
2018-08-09T09:03:56.451Z,31.00
2018-08-09T09:06:25.384Z,31.20
2018-08-09T09:08:53.892Z,31.20
2018-08-09T09:11:22.434Z,31.30
2018-08-09T09:13:51.129Z,31.40
2018-08-09T09:16:19.643Z,31.50
2018-08-09T09:18:48.352Z,31.20
2018-08-09T09:21:17.061Z,31.20
2018-08-09T09:23:45.829Z,31.30
2018-08-09T09:26:15.272Z,31.30
2018-08-09T09:28:43.990Z,31.30
2018-08-09T09:31:12.687Z,31.10
2018-08-09T09:33:41.430Z,30.90
2018-08-09T09:36:10.233Z,30.80
2018-08-09T09:38:38.930Z,30.60
2018-08-09T09:41:07.660Z,30.50
2018-08-09T09:43:36.336Z,30.50
2018-08-09T09:46:05.067Z,30.90
2018-08-09T09:48:34.862Z,31.30
2018-08-09T09:51:05.103Z,31.50
2018-08-09T09:53:35.404Z,31.50
2018-08-09T09:56:04.269Z,31.30
2018-08-09T09:58:32.921Z,31.10
2018-08-09T10:01:07.135Z,30.90
2018-08-09T10:03:35.813Z,31.00
2018-08-09T10:06:05.178Z,32.00
2018-08-09T10:11:02.096Z,33.90
2018-08-09T10:13:30.658Z,34.30
2018-08-09T10:15:59.199Z,34.40
2018-08-09T10:18:28.084Z,34.30
2018-08-09T10:20:56.792Z,33.60
2018-08-09T10:23:25.307Z,33.40
2018-08-09T10:25:53.875Z,33.00
2018-08-09T10:28:22.453Z,32.80
2018-08-09T10:30:51.041Z,32.90
2018-08-09T10:33:19.593Z,33.60
2018-08-09T10:35:48.155Z,34.50
2018-08-09T10:38:16.725Z,34.60
2018-08-09T10:40:45.288Z,34.10
2018-08-09T10:43:13.816Z,34.00
2018-08-09T10:45:42.375Z,33.60
2018-08-09T10:48:10.888Z,33.30
2018-08-09T10:50:39.431Z,33.00
2018-08-09T10:53:07.995Z,32.70
2018-08-09T10:55:36.550Z,32.50
2018-08-09T10:58:05.983Z,32.30
2018-08-09T11:00:34.952Z,32.10
2018-08-09T11:03:03.497Z,32.00
2018-08-09T11:05:32.062Z,31.90
2018-08-09T11:08:00.612Z,31.90
2018-08-09T11:10:29.189Z,31.70
2018-08-09T11:12:57.702Z,31.60
2018-08-09T11:15:26.963Z,31.60
2018-08-09T11:17:55.538Z,31.60
2018-08-09T11:20:24.074Z,31.60
2018-08-09T11:22:52.634Z,31.50
2018-08-09T11:25:21.140Z,31.30
2018-08-09T11:27:49.685Z,31.40
2018-08-09T11:30:18.240Z,31.50
2018-08-09T11:32:46.813Z,31.30
2018-08-09T11:35:15.342Z,31.50
2018-08-09T11:37:43.896Z,31.60
2018-08-09T11:40:12.451Z,31.50
2018-08-09T11:42:41.008Z,31.40
2018-08-09T11:45:09.556Z,31.30
2018-08-09T11:47:38.136Z,31.50
2018-08-09T11:50:07.022Z,31.50
2018-08-09T11:52:35.570Z,31.50
2018-08-09T11:55:04.394Z,31.50
2018-08-09T11:57:32.924Z,31.60
2018-08-09T12:00:01.458Z,31.50
2018-08-09T12:02:30.117Z,31.60
2018-08-09T12:04:58.699Z,31.70
2018-08-09T12:07:27.258Z,31.70
2018-08-09T12:09:55.798Z,31.70
2018-08-09T12:12:24.700Z,31.60
2018-08-09T12:14:53.715Z,31.70
2018-08-09T12:17:22.245Z,31.80
2018-08-09T12:19:51.033Z,31.90
2018-08-09T12:22:19.560Z,32.00
2018-08-09T12:24:48.076Z,32.00
2018-08-09T12:27:16.653Z,32.10
2018-08-09T12:29:45.174Z,32.00
2018-08-09T12:32:13.697Z,32.00
2018-08-09T12:34:42.264Z,32.00
2018-08-09T12:37:10.821Z,32.10
2018-08-09T12:39:39.355Z,32.20
2018-08-09T12:42:07.927Z,32.20
2018-08-09T12:44:36.465Z,32.20
2018-08-09T12:47:05.241Z,32.10
2018-08-09T12:49:33.820Z,32.00
2018-08-09T12:52:02.564Z,32.00
2018-08-09T12:54:31.246Z,32.00
2018-08-09T12:57:00.020Z,31.90
2018-08-09T12:59:28.585Z,31.70
2018-08-09T13:01:57.156Z,31.80
2018-08-09T13:04:26.094Z,31.90
2018-08-09T13:06:55.736Z,31.90
2018-08-09T13:09:24.262Z,31.90
2018-08-09T13:11:52.825Z,31.90
2018-08-09T13:14:21.351Z,31.90
2018-08-09T13:16:49.894Z,31.90
2018-08-09T13:19:18.517Z,32.00
2018-08-09T13:21:47.053Z,32.00
2018-08-09T13:24:15.669Z,32.10
2018-08-09T13:26:44.235Z,32.10
2018-08-09T13:29:12.757Z,32.20
2018-08-09T13:31:41.405Z,32.20
2018-08-09T13:34:10.417Z,32.20
2018-08-09T13:36:39.018Z,32.30
2018-08-09T13:39:10.856Z,32.30
2018-08-09T13:41:39.397Z,32.40
2018-08-09T13:44:08.023Z,32.50
2018-08-09T13:46:36.591Z,32.50
2018-08-09T13:49:05.411Z,32.70
2018-08-09T13:51:33.968Z,32.70
2018-08-09T13:54:02.822Z,32.70
2018-08-09T13:56:31.466Z,32.70
2018-08-09T13:59:00.056Z,32.70
2018-08-09T14:01:28.592Z,32.70
2018-08-09T14:03:57.186Z,32.60
2018-08-09T14:06:49.486Z,32.70
2018-08-09T14:09:19.791Z,32.80
2018-08-09T14:11:48.299Z,32.90
2018-08-09T14:16:45.085Z,32.70
2018-08-09T14:19:13.640Z,32.80
2018-08-09T14:21:42.177Z,32.60
2018-08-09T14:24:11.106Z,32.60
2018-08-09T14:26:40.785Z,32.60
2018-08-09T14:29:10.393Z,32.50
2018-08-09T14:31:39.212Z,32.50
2018-08-09T14:34:07.844Z,32.40
2018-08-09T14:36:36.787Z,32.30
2018-08-09T14:39:08.694Z,32.10
2018-08-09T14:41:38.005Z,32.10
2018-08-09T14:44:07.030Z,32.20
2018-08-09T14:46:35.935Z,32.10
2018-08-09T14:49:04.792Z,32.00
2018-08-09T14:51:33.388Z,31.90
2018-08-09T14:54:02.089Z,31.50
2018-08-09T14:56:30.689Z,30.80
2018-08-09T14:58:59.317Z,30.10
2018-08-09T15:01:29.993Z,29.60
2018-08-09T15:03:58.699Z,29.20
2018-08-09T15:06:27.258Z,28.80
2018-08-09T15:08:55.837Z,28.00
2018-08-09T15:11:24.694Z,27.40
2018-08-09T15:13:53.234Z,26.60
2018-08-09T15:16:21.762Z,25.60
2018-08-09T15:18:50.354Z,25.00
2018-08-09T15:21:18.899Z,24.70
2018-08-09T15:23:47.464Z,24.20
2018-08-09T15:26:16.069Z,24.00
2018-08-09T15:28:44.632Z,23.70
2018-08-09T15:31:13.183Z,23.70
2018-08-09T15:33:41.716Z,23.70
2018-08-09T15:36:10.278Z,23.70
2018-08-09T15:38:38.826Z,23.50
2018-08-09T15:41:07.352Z,23.20
2018-08-09T15:43:35.898Z,23.10
2018-08-09T15:46:04.512Z,23.10
2018-08-09T15:48:33.052Z,23.10
2018-08-09T15:51:01.559Z,22.90
2018-08-09T15:53:30.081Z,22.70
2018-08-09T15:55:58.592Z,22.70
2018-08-09T15:58:27.131Z,22.70
2018-08-09T16:00:55.696Z,22.80
2018-08-09T16:03:24.226Z,22.80
2018-08-09T16:05:52.767Z,22.70
2018-08-09T16:08:21.285Z,22.60
2018-08-09T16:10:49.843Z,22.40
2018-08-09T16:13:18.389Z,24.40
2018-08-09T16:15:46.919Z,22.50
2018-08-09T16:18:15.953Z,22.50
2018-08-09T16:20:44.508Z,22.50
2018-08-09T16:23:13.033Z,22.40
2018-08-09T16:25:41.629Z,22.30
2018-08-09T16:28:10.193Z,22.50
2018-08-09T16:30:38.738Z,22.40
2018-08-09T16:33:07.278Z,22.60
2018-08-09T16:35:35.860Z,22.60
2018-08-09T16:38:04.984Z,22.50
2018-08-09T16:40:33.516Z,22.60
2018-08-09T16:43:02.246Z,22.60
2018-08-09T16:45:30.880Z,22.70
2018-08-09T16:47:59.408Z,22.80
2018-08-09T16:50:27.936Z,22.90
2018-08-09T16:52:57.320Z,23.10
2018-08-09T16:55:26.508Z,23.30
2018-08-09T16:57:55.042Z,23.40
2018-08-09T17:00:24.529Z,23.20
2018-08-09T17:02:53.988Z,23.10
2018-08-09T17:05:24.843Z,23.00
2018-08-09T17:07:53.658Z,23.10
2018-08-09T17:10:23.536Z,22.90
2018-08-09T17:12:52.210Z,22.90
2018-08-09T17:15:23.750Z,22.90
2018-08-09T17:17:52.455Z,22.60
2018-08-09T17:20:25.393Z,22.60
2018-08-09T17:22:54.074Z,22.50
2018-08-09T17:25:22.650Z,22.40
2018-08-09T17:27:51.504Z,22.30
2018-08-09T17:30:22.589Z,22.30
2018-08-09T17:32:52.213Z,22.30
2018-08-09T17:35:21.043Z,22.20
2018-08-09T17:37:49.819Z,22.20
2018-08-09T17:40:34.093Z,22.10
2018-08-09T17:43:03.485Z,22.20
2018-08-09T17:45:33.404Z,22.40
2018-08-09T17:48:02.598Z,22.60
2018-08-09T17:50:31.139Z,22.60
2018-08-09T17:53:02.033Z,22.50
2018-08-09T17:55:31.109Z,22.40
2018-08-09T17:57:59.700Z,22.40
2018-08-09T18:00:29.628Z,22.40
2018-08-09T18:02:58.140Z,22.60
2018-08-09T18:05:26.684Z,22.60
2018-08-09T18:07:55.808Z,22.60
2018-08-09T18:10:26.558Z,22.60
2018-08-09T18:12:55.200Z,22.70
2018-08-09T18:15:24.812Z,22.60
2018-08-09T18:17:53.454Z,22.70
2018-08-09T18:20:23.849Z,22.80
2018-08-09T18:22:52.414Z,22.80
2018-08-09T18:25:21.007Z,22.80
2018-08-09T18:27:49.546Z,22.80
2018-08-09T18:30:19.218Z,22.60
2018-08-09T18:32:47.791Z,22.40
2018-08-09T18:35:17.421Z,22.60
2018-08-09T18:37:46.878Z,22.60
2018-08-09T18:40:18.154Z,22.80
2018-08-09T18:42:47.166Z,22.70
2018-08-09T18:45:15.788Z,22.70
2018-08-09T18:47:44.365Z,22.70
2018-08-09T18:50:18.309Z,22.60
2018-08-09T18:52:47.017Z,22.60
2018-08-09T18:55:16.740Z,22.80
2018-08-09T18:57:45.277Z,22.70
2018-08-09T19:00:18.100Z,22.60
2018-08-09T19:02:47.171Z,22.60
2018-08-09T19:05:15.942Z,22.50
2018-08-09T19:07:44.624Z,22.50
2018-08-09T19:10:16.225Z,22.50
2018-08-09T19:12:44.814Z,22.50
2018-08-09T19:15:18.803Z,22.50
2018-08-09T19:17:48.660Z,22.50
2018-08-09T19:20:23.289Z,22.60
2018-08-09T19:22:52.273Z,22.60
2018-08-09T19:25:20.798Z,22.60
2018-08-09T19:27:49.336Z,22.60
2018-08-09T19:30:22.637Z,22.60
2018-08-09T19:32:51.411Z,22.60
2018-08-09T19:35:20.688Z,22.70
2018-08-09T19:37:49.251Z,22.60
2018-08-09T19:40:19.625Z,22.70
2018-08-09T19:42:48.233Z,22.70
2018-08-09T19:45:17.857Z,22.70
2018-08-09T19:47:46.392Z,22.70
2018-08-09T19:50:16.755Z,22.70
2018-08-09T19:52:46.585Z,22.70
2018-08-09T19:55:16.903Z,22.70
2018-08-09T19:57:46.962Z,22.60
2018-08-09T20:00:20.284Z,22.60
2018-08-09T20:02:49.244Z,22.60
2018-08-09T20:05:17.901Z,22.50
2018-08-09T20:07:46.500Z,22.50
2018-08-09T20:10:15.464Z,22.40
2018-08-09T20:12:46.236Z,22.30
2018-08-09T20:15:20.148Z,22.20
2018-08-09T20:17:48.834Z,22.30
2018-08-09T20:20:18.916Z,22.20
2018-08-09T20:22:47.497Z,22.20
2018-08-09T20:25:16.296Z,22.10
2018-08-09T20:27:45.481Z,22.10
2018-08-09T20:30:16.469Z,22.10
2018-08-09T20:32:46.151Z,22.00
2018-08-09T20:35:16.509Z,21.90
2018-08-09T20:37:45.910Z,22.00
2018-08-09T20:40:15.077Z,22.00
2018-08-09T20:42:44.280Z,22.00
2018-08-09T20:45:14.188Z,21.90
2018-08-09T20:47:42.718Z,22.00
2018-08-09T20:50:13.579Z,22.00
2018-08-09T20:52:42.910Z,21.90
2018-08-09T20:55:11.663Z,22.00
2018-08-09T20:57:41.103Z,22.00
2018-08-09T21:00:13.091Z,21.90
2018-08-09T21:02:41.731Z,21.90
2018-08-09T21:05:15.345Z,22.00
2018-08-09T21:07:43.881Z,22.00
2018-08-09T21:10:12.416Z,22.00
2018-08-09T21:12:40.986Z,22.00
2018-08-09T21:15:09.528Z,21.90
2018-08-09T21:17:38.093Z,22.00
2018-08-09T21:20:06.932Z,22.00
2018-08-09T21:22:35.444Z,22.00
2018-08-09T21:25:04.788Z,21.90
2018-08-09T21:27:33.285Z,21.90
2018-08-09T21:30:01.815Z,22.00
2018-08-09T21:32:30.385Z,22.00
2018-08-09T21:34:58.905Z,21.90
2018-08-09T21:37:27.416Z,21.90
2018-08-09T21:39:57.215Z,21.90
2018-08-09T21:42:25.866Z,21.90
2018-08-09T21:44:57.387Z,22.00
2018-08-09T21:47:28.189Z,22.20
2018-08-09T21:49:57.939Z,22.30
2018-08-09T21:52:27.318Z,22.10
2018-08-09T21:54:55.944Z,22.10
2018-08-09T21:57:24.500Z,22.20
2018-08-09T21:59:54.837Z,22.10
2018-08-09T22:02:23.341Z,22.20
2018-08-09T22:05:00.834Z,22.30
2018-08-09T22:08:35.426Z,22.30
2018-08-09T22:11:09.481Z,22.20
2018-08-09T22:13:43.356Z,22.10
2018-08-09T22:16:17.233Z,22.10
2018-08-09T22:19:48.923Z,22.10
2018-08-09T22:22:22.158Z,22.30
2018-08-09T22:24:50.899Z,22.10
2018-08-09T22:27:20.358Z,22.10
2018-08-09T22:29:49.042Z,22.20
2018-08-09T22:32:17.632Z,22.30
2018-08-09T22:34:46.303Z,22.30
2018-08-09T22:37:14.982Z,22.20
2018-08-09T22:39:43.759Z,21.90
2018-08-09T22:42:12.280Z,21.80
2018-08-09T22:44:40.825Z,21.90
2018-08-09T22:47:09.377Z,22.00
2018-08-09T22:49:37.905Z,22.00
2018-08-09T22:52:06.504Z,21.90
2018-08-09T22:54:35.142Z,21.90
2018-08-09T22:57:03.700Z,21.90
2018-08-09T22:59:32.284Z,21.90
2018-08-09T23:02:00.884Z,22.00
2018-08-09T23:04:29.436Z,22.00
2018-08-09T23:06:58.044Z,22.10
2018-08-09T23:09:26.704Z,22.00
2018-08-09T23:11:55.381Z,21.90
2018-08-09T23:14:23.947Z,22.00
2018-08-09T23:16:52.599Z,22.00
2018-08-09T23:19:21.128Z,21.90
2018-08-09T23:21:49.667Z,21.90
2018-08-09T23:24:18.246Z,21.90
2018-08-09T23:26:46.819Z,21.90
2018-08-09T23:29:15.353Z,21.90
2018-08-09T23:31:43.922Z,21.80
2018-08-09T23:34:12.466Z,21.80
2018-08-09T23:36:41.041Z,21.80
2018-08-09T23:39:11.859Z,21.70
2018-08-09T23:41:40.440Z,21.70
2018-08-09T23:44:09.001Z,21.80
2018-08-09T23:46:37.624Z,21.80
2018-08-09T23:49:06.156Z,21.70
2018-08-09T23:51:34.754Z,21.80
2018-08-09T23:54:04.041Z,21.80
2018-08-09T23:56:32.574Z,21.70
2018-08-09T23:59:01.129Z,21.60
